Ranchito, New Mexico
Current Conditions -  °F | °C
As of 7:15 AM on Wednesday 26 Nov 2014 (Local Time) from KSKX Reporting Station
Clear Clear  
Wind Chill:   Ceiling: Unl
Heat Index: 10°   Visibility: 10mi
Dew Point:   Wind: 6mph
Humidity: 79%   Direction: 350°N
Pressure: 30.33"   Gusts: NA
Location:  36.4227°N, 105.509°W
Report Text: KSKX 261415Z AUTO 35005KT 10SM CLR M12/M15 A3033 RMK AO1
Loading
Personal Weather Stations






























Interactive Weather Map New forecast layout! Learn more

10-Day Weather Forecast

Advertisements
Track Severe Weather on mobile